LNG Aquarius — V7BW6 — position and weather

sailwx.info

Track history (hours):
 
Tides and Currents Weather Stations Pressure Air Temp Water Temp Dewpoint Dewpoint Depression Visibility Wind Speed Wind Dir Waves Ship Positions

LNG Aquarius

Last reported at 2015-Apr-18 11:33 UTC. Time now 2015-Apr-18 11:39 UTC.
Position N 32°03' E 120°25'.

Type: Tanker. MMSI: 538001385.

Date/timePositionNaut miles runAvg speedWind from/ knotsBaromVisibWave heightAir tempDewpointWater temp
2015-Apr-18 11:33N 32°03' E 120°25'0 0.1
2015-Apr-18 10:29N 32°03' E 120°25'0 0.1
2015-Apr-18 08:30N 32°03' E 120°25'0 0.0
2015-Apr-18 07:30N 32°03' E 120°25'0 0.0
2015-Apr-18 06:30N 32°03' E 120°25'0 0.0
2015-Apr-18 05:25N 32°03' E 120°25'0 0.0
2015-Apr-18 04:30N 32°03' E 120°25'0 0.0
2015-Apr-18 03:30N 32°03' E 120°25'0 0.0
2015-Apr-18 02:24N 32°03' E 120°25'0 0.0
2015-Apr-18 01:30N 32°03' E 120°25'0 0.1
2015-Apr-18 00:33N 32°03' E 120°25'0 0.1
2015-Apr-17 23:33N 32°03' E 120°25'0 0.2
2015-Apr-17 22:30N 32°03' E 120°25'0 0.0
2015-Apr-17 21:30N 32°03' E 120°25'0 0.0
2015-Apr-17 20:30N 32°03' E 120°25'0 0.0
2015-Apr-17 19:30N 32°03' E 120°25'0 0.0
2015-Apr-17 18:31N 32°03' E 120°25'0 0.0
2015-Apr-17 17:30N 32°03' E 120°25'0 0.0
2015-Apr-17 16:30N 32°03' E 120°25'0 0.0
2015-Apr-17 15:30N 32°03' E 120°25'0 0.0
2015-Apr-17 14:24N 32°03' E 120°25'0 0.0
2015-Apr-17 13:30N 32°03' E 120°25'0 0.0
2015-Apr-17 12:30N 32°03' E 120°25'0 0.0
2015-Apr-17 10:30N 32°03' E 120°25'0 0.1
2015-Apr-17 09:33N 32°03' E 120°25'0 0.2
2015-Apr-17 08:21N 32°03' E 120°25'2 2.2
2015-Apr-17 07:23N 32°01' E 120°24'0 0.0
2015-Apr-17 06:23N 32°01' E 120°24'0 0.0
2015-Apr-17 05:29N 32°01' E 120°24'0 0.2
2015-Apr-17 04:29N 32°01' E 120°24'0 0.1
2015-Apr-17 03:29N 32°01' E 120°24'0 0.0
2015-Apr-17 02:29N 32°01' E 120°24'0 0.0
2015-Apr-17 01:29N 32°01' E 120°24'0 0.0
2015-Apr-16 15:27N 32°01' E 120°24'0 0.0
2015-Apr-16 09:27N 32°01' E 120°24'0 0.0
2015-Apr-16 08:16N 32°01' E 120°24'0 0.3
2015-Apr-16 07:33N 32°01' E 120°24'0 0.1
2015-Apr-16 06:21N 32°01' E 120°24'0 0.1
2015-Apr-16 05:33N 32°01' E 120°24'0 0.1
2015-Apr-16 04:09N 32°01' E 120°24'0 0.1
2015-Apr-16 03:33N 32°01' E 120°24'0 0.1
2015-Apr-16 02:27N 32°01' E 120°24'0 0.0
2015-Apr-16 01:21N 32°01' E 120°24'0 0.0
2015-Apr-16 00:16N 32°01' E 120°24'0 0.0
2015-Apr-15 23:28N 32°01' E 120°24'0 0.0
2015-Apr-15 22:33N 32°01' E 120°24'0 0.0
2015-Apr-15 20:27N 32°01' E 120°24'0 0.0
2015-Apr-15 19:27N 32°01' E 120°24'0 0.1
2015-Apr-15 18:28N 32°01' E 120°24'0 0.1
2015-Apr-15 17:28N 32°01' E 120°24'0 0.0
2015-Apr-15 16:33N 32°01' E 120°24'0 0.0
2015-Apr-15 15:27N 32°01' E 120°24'0 0.0
2015-Apr-15 14:27N 32°01' E 120°24'0 0.0
2015-Apr-15 13:27N 32°01' E 120°24'0 0.0
2015-Apr-15 12:21N 32°01' E 120°24'0 0.0
2015-Apr-15 11:28N 32°01' E 120°24'0 0.0
2015-Apr-15 10:09N 32°01' E 120°24'0 0.0
2015-Apr-15 09:33N 32°01' E 120°24'0 0.0
2015-Apr-15 08:33N 32°01' E 120°24'0 0.0
2015-Apr-15 07:33N 32°01' E 120°24'0 0.0
2015-Apr-15 06:33N 32°01' E 120°24'0 0.0
2015-Apr-15 05:33N 32°01' E 120°24'0 0.0
2015-Apr-15 04:33N 32°01' E 120°24'5 5.2
2015-Apr-15 03:33N 32°04' E 120°29'10 9.6
2015-Apr-15 02:30N 31°60' E 120°39'9 9.4
2015-Apr-15 01:33N 31°59' E 120°50'1010.0
2015-Apr-15 00:33N 31°50' E 120°54'9 8.9
2015-Apr-14 23:33N 31°46' E 121°04'10 9.8
2015-Apr-14 22:33N 31°40' E 121°13'8 7.7
2015-Apr-14 21:31N 31°35' E 121°20'0 0.1
2015-Apr-14 20:31N 31°35' E 121°20'0 0.1
2015-Apr-14 19:31N 31°35' E 121°20'0 0.0
2015-Apr-14 18:28N 31°35' E 121°20'0 0.0
2015-Apr-14 17:31N 31°35' E 121°20'0 0.1
2015-Apr-14 16:31N 31°35' E 121°20'0 0.1
2015-Apr-14 15:31N 31°35' E 121°20'0 0.1
2015-Apr-14 14:28N 31°35' E 121°20'0 0.0
2015-Apr-14 13:31N 31°35' E 121°20'0 0.0
2015-Apr-14 12:31N 31°35' E 121°20'0 0.1
2015-Apr-14 11:28N 31°35' E 121°20'1 1.2
2015-Apr-14 10:33N 31°34' E 121°20'9 8.8
2015-Apr-14 09:33N 31°28' E 121°28'7 6.9
2015-Apr-14 08:33N 31°24' E 121°34'8 8.2
2015-Apr-14 07:33N 31°19' E 121°42'4 3.6
2015-Apr-14 06:31N 31°17' E 121°45'0 0.0
2015-Apr-14 05:31N 31°17' E 121°45'0 0.0
2015-Apr-14 04:31N 31°17' E 121°45'0 0.0
2015-Apr-14 03:31N 31°17' E 121°45'0 0.0
2015-Apr-14 02:31N 31°17' E 121°45'0 0.0
2015-Apr-14 01:31N 31°17' E 121°45'0 0.0
2015-Apr-14 00:31N 31°17' E 121°45'0 0.1
2015-Apr-13 23:31N 31°17' E 121°45'0 0.0
2015-Apr-13 22:31N 31°17' E 121°45'0 0.0
2015-Apr-13 21:31N 31°17' E 121°45'0 0.1
2015-Apr-13 20:31N 31°17' E 121°45'0 0.1
2015-Apr-13 19:31N 31°17' E 121°45'0 0.0
2015-Apr-13 18:31N 31°17' E 121°45'0 0.0
2015-Apr-13 17:28N 31°17' E 121°45'0 0.0
2015-Apr-13 16:31N 31°17' E 121°45'0 0.0
2015-Apr-13 15:31N 31°17' E 121°45'0 0.0
2015-Apr-13 14:31N 31°17' E 121°45'0 0.0
2015-Apr-13 13:31N 31°17' E 121°45'0 0.0
2015-Apr-13 12:31N 31°17' E 121°45'0 0.0
2015-Apr-13 11:31N 31°17' E 121°45'0 0.0
2015-Apr-13 10:31N 31°17' E 121°45'0 0.0
2015-Apr-13 09:33N 31°17' E 121°45'0 0.1
2015-Apr-13 08:34N 31°17' E 121°45'0 0.1
2015-Apr-13 07:33N 31°17' E 121°45'1 0.7
2015-Apr-13 06:33N 31°16' E 121°45'4 4.3
2015-Apr-13 05:33N 31°13' E 121°49'4 3.7
2015-Apr-13 04:33N 31°10' E 121°52'3 3.2
2015-Apr-13 03:33N 31°08' E 121°55'3 3.2
2015-Apr-13 02:33N 31°07' E 121°58'1 1.3
2015-Apr-13 01:31N 31°06' E 121°59'0 0.1
2015-Apr-13 00:31N 31°06' E 121°59'0 0.0
2015-Apr-12 23:31N 31°06' E 121°59'0 0.1
2015-Apr-12 22:33N 31°06' E 121°59'8 7.9
2015-Apr-12 21:33N 31°03' E 122°08'9 8.9
2015-Apr-12 20:33N 31°02' E 122°18'46 6.6
2015-Apr-12 13:33N 31°24' E 123°06'1212.1
2015-Apr-12 12:32N 31°35' E 123°11'1212.2
2015-Apr-12 11:33N 31°46' E 123°17'28110.8
2015-Apr-11 09:30N 36°28' E 123°29'1111.9
2015-Apr-11 08:33N 36°39' E 123°27'1212.0
2015-Apr-11 07:33N 36°51' E 123°25'1211.9
2015-Apr-11 06:31N 37°03' E 123°23'1211.7
2015-Apr-11 05:28N 37°15' E 123°21'1011.1
2015-Apr-11 04:33N 37°25' E 123°20'1310.2
2015-Apr-11 03:17N 37°38' E 123°18'8 9.8
2015-Apr-11 02:29N 37°46' E 123°17'8910.6
2015-Apr-10 18:08N 38°21' E 121°33'  
Track history (hours):
 
Tides and Currents Weather Stations Pressure Air Temp Water Temp Dewpoint Dewpoint Depression Visibility Wind Speed Wind Dir Waves Ship Positions

LNG Aquarius

Last reported at 2015-Apr-18 11:33 UTC. Time now 2015-Apr-18 11:39 UTC.
Position N 32°03' E 120°25'.

Type: Tanker. MMSI: 538001385.

Date/timePositionNaut miles runAvg speedWind from/ knotsBaromVisibWave heightAir tempDewpointWater temp
2015-Apr-18 11:33N 32°03' E 120°25'0 0.1
2015-Apr-18 10:29N 32°03' E 120°25'0 0.1
2015-Apr-18 08:30N 32°03' E 120°25'0 0.0
2015-Apr-18 07:30N 32°03' E 120°25'0 0.0
2015-Apr-18 06:30N 32°03' E 120°25'0 0.0
2015-Apr-18 05:25N 32°03' E 120°25'0 0.0
2015-Apr-18 04:30N 32°03' E 120°25'0 0.0
2015-Apr-18 03:30N 32°03' E 120°25'0 0.0
2015-Apr-18 02:24N 32°03' E 120°25'0 0.0
2015-Apr-18 01:30N 32°03' E 120°25'0 0.1
2015-Apr-18 00:33N 32°03' E 120°25'0 0.1
2015-Apr-17 23:33N 32°03' E 120°25'0 0.2
2015-Apr-17 22:30N 32°03' E 120°25'0 0.0
2015-Apr-17 21:30N 32°03' E 120°25'0 0.0
2015-Apr-17 20:30N 32°03' E 120°25'0 0.0
2015-Apr-17 19:30N 32°03' E 120°25'0 0.0
2015-Apr-17 18:31N 32°03' E 120°25'0 0.0
2015-Apr-17 17:30N 32°03' E 120°25'0 0.0
2015-Apr-17 16:30N 32°03' E 120°25'0 0.0
2015-Apr-17 15:30N 32°03' E 120°25'0 0.0
2015-Apr-17 14:24N 32°03' E 120°25'0 0.0
2015-Apr-17 13:30N 32°03' E 120°25'0 0.0
2015-Apr-17 12:30N 32°03' E 120°25'0 0.0
2015-Apr-17 10:30N 32°03' E 120°25'0 0.1
2015-Apr-17 09:33N 32°03' E 120°25'0 0.2
2015-Apr-17 08:21N 32°03' E 120°25'2 2.2
2015-Apr-17 07:23N 32°01' E 120°24'0 0.0
2015-Apr-17 06:23N 32°01' E 120°24'0 0.0
2015-Apr-17 05:29N 32°01' E 120°24'0 0.2
2015-Apr-17 04:29N 32°01' E 120°24'0 0.1
2015-Apr-17 03:29N 32°01' E 120°24'0 0.0
2015-Apr-17 02:29N 32°01' E 120°24'0 0.0
2015-Apr-17 01:29N 32°01' E 120°24'0 0.0
2015-Apr-16 15:27N 32°01' E 120°24'0 0.0
2015-Apr-16 09:27N 32°01' E 120°24'0 0.0
2015-Apr-16 08:16N 32°01' E 120°24'0 0.3
2015-Apr-16 07:33N 32°01' E 120°24'0 0.1
2015-Apr-16 06:21N 32°01' E 120°24'0 0.1
2015-Apr-16 05:33N 32°01' E 120°24'0 0.1
2015-Apr-16 04:09N 32°01' E 120°24'0 0.1
2015-Apr-16 03:33N 32°01' E 120°24'0 0.1
2015-Apr-16 02:27N 32°01' E 120°24'0 0.0
2015-Apr-16 01:21N 32°01' E 120°24'0 0.0
2015-Apr-16 00:16N 32°01' E 120°24'0 0.0
2015-Apr-15 23:28N 32°01' E 120°24'0 0.0
2015-Apr-15 22:33N 32°01' E 120°24'0 0.0
2015-Apr-15 20:27N 32°01' E 120°24'0 0.0
2015-Apr-15 19:27N 32°01' E 120°24'0 0.1
2015-Apr-15 18:28N 32°01' E 120°24'0 0.1
2015-Apr-15 17:28N 32°01' E 120°24'0 0.0
2015-Apr-15 16:33N 32°01' E 120°24'0 0.0
2015-Apr-15 15:27N 32°01' E 120°24'0 0.0
2015-Apr-15 14:27N 32°01' E 120°24'0 0.0
2015-Apr-15 13:27N 32°01' E 120°24'0 0.0
2015-Apr-15 12:21N 32°01' E 120°24'0 0.0
2015-Apr-15 11:28N 32°01' E 120°24'0 0.0
2015-Apr-15 10:09N 32°01' E 120°24'0 0.0
2015-Apr-15 09:33N 32°01' E 120°24'0 0.0
2015-Apr-15 08:33N 32°01' E 120°24'0 0.0
2015-Apr-15 07:33N 32°01' E 120°24'0 0.0
2015-Apr-15 06:33N 32°01' E 120°24'0 0.0
2015-Apr-15 05:33N 32°01' E 120°24'0 0.0
2015-Apr-15 04:33N 32°01' E 120°24'5 5.2
2015-Apr-15 03:33N 32°04' E 120°29'10 9.6
2015-Apr-15 02:30N 31°60' E 120°39'9 9.4
2015-Apr-15 01:33N 31°59' E 120°50'1010.0
2015-Apr-15 00:33N 31°50' E 120°54'9 8.9
2015-Apr-14 23:33N 31°46' E 121°04'10 9.8
2015-Apr-14 22:33N 31°40' E 121°13'8 7.7
2015-Apr-14 21:31N 31°35' E 121°20'0 0.1
2015-Apr-14 20:31N 31°35' E 121°20'0 0.1
2015-Apr-14 19:31N 31°35' E 121°20'0 0.0
2015-Apr-14 18:28N 31°35' E 121°20'0 0.0
2015-Apr-14 17:31N 31°35' E 121°20'0 0.1
2015-Apr-14 16:31N 31°35' E 121°20'0 0.1
2015-Apr-14 15:31N 31°35' E 121°20'0 0.1
2015-Apr-14 14:28N 31°35' E 121°20'0 0.0
2015-Apr-14 13:31N 31°35' E 121°20'0 0.0
2015-Apr-14 12:31N 31°35' E 121°20'0 0.1
2015-Apr-14 11:28N 31°35' E 121°20'1 1.2
2015-Apr-14 10:33N 31°34' E 121°20'9 8.8
2015-Apr-14 09:33N 31°28' E 121°28'7 6.9
2015-Apr-14 08:33N 31°24' E 121°34'8 8.2
2015-Apr-14 07:33N 31°19' E 121°42'4 3.6
2015-Apr-14 06:31N 31°17' E 121°45'0 0.0
2015-Apr-14 05:31N 31°17' E 121°45'0 0.0
2015-Apr-14 04:31N 31°17' E 121°45'0 0.0
2015-Apr-14 03:31N 31°17' E 121°45'0 0.0
2015-Apr-14 02:31N 31°17' E 121°45'0 0.0
2015-Apr-14 01:31N 31°17' E 121°45'0 0.0
2015-Apr-14 00:31N 31°17' E 121°45'0 0.1
2015-Apr-13 23:31N 31°17' E 121°45'0 0.0
2015-Apr-13 22:31N 31°17' E 121°45'0 0.0
2015-Apr-13 21:31N 31°17' E 121°45'0 0.1
2015-Apr-13 20:31N 31°17' E 121°45'0 0.1
2015-Apr-13 19:31N 31°17' E 121°45'0 0.0
2015-Apr-13 18:31N 31°17' E 121°45'0 0.0
2015-Apr-13 17:28N 31°17' E 121°45'0 0.0
2015-Apr-13 16:31N 31°17' E 121°45'0 0.0
2015-Apr-13 15:31N 31°17' E 121°45'0 0.0
2015-Apr-13 14:31N 31°17' E 121°45'0 0.0
2015-Apr-13 13:31N 31°17' E 121°45'0 0.0
2015-Apr-13 12:31N 31°17' E 121°45'0 0.0
2015-Apr-13 11:31N 31°17' E 121°45'0 0.0
2015-Apr-13 10:31N 31°17' E 121°45'0 0.0
2015-Apr-13 09:33N 31°17' E 121°45'0 0.1
2015-Apr-13 08:34N 31°17' E 121°45'0 0.1
2015-Apr-13 07:33N 31°17' E 121°45'1 0.7
2015-Apr-13 06:33N 31°16' E 121°45'4 4.3
2015-Apr-13 05:33N 31°13' E 121°49'4 3.7
2015-Apr-13 04:33N 31°10' E 121°52'3 3.2
2015-Apr-13 03:33N 31°08' E 121°55'3 3.2
2015-Apr-13 02:33N 31°07' E 121°58'1 1.3
2015-Apr-13 01:31N 31°06' E 121°59'0 0.1
2015-Apr-13 00:31N 31°06' E 121°59'0 0.0
2015-Apr-12 23:31N 31°06' E 121°59'0 0.1
2015-Apr-12 22:33N 31°06' E 121°59'8 7.9
2015-Apr-12 21:33N 31°03' E 122°08'9 8.9
2015-Apr-12 20:33N 31°02' E 122°18'46 6.6
2015-Apr-12 13:33N 31°24' E 123°06'1212.1
2015-Apr-12 12:32N 31°35' E 123°11'1212.2
2015-Apr-12 11:33N 31°46' E 123°17'28110.8
2015-Apr-11 09:30N 36°28' E 123°29'1111.9
2015-Apr-11 08:33N 36°39' E 123°27'1212.0
2015-Apr-11 07:33N 36°51' E 123°25'1211.9
2015-Apr-11 06:31N 37°03' E 123°23'1211.7
2015-Apr-11 05:28N 37°15' E 123°21'1011.1
2015-Apr-11 04:33N 37°25' E 123°20'1310.2
2015-Apr-11 03:17N 37°38' E 123°18'8 9.8
2015-Apr-11 02:29N 37°46' E 123°17'8910.6
2015-Apr-10 18:08N 38°21' E 121°33'  

Dump ship's entire track history